Time;durP1;ratioP1;P1;durP2;ratioP2;P2;SDS_P1;SDS_P2;PMS_P1;PMS_P2;Temp;Humidity;BMP_temperature;BMP_pressure;BME280_temperature;BME280_humidity;BME280_pressure;Samples;Min_cycle;Max_cycle;Signal;HPM_P1;HPM_P2
2023/07/08 00:00:13;;;;;;;7.47;4.10;;;;;;;;;;4958985;28;20018;-96
2023/07/08 00:02:41;;;;;;;11.95;4.28;;;;;;;;;;4977650;28;20027;-96
2023/07/08 00:05:08;;;;;;;10.65;4.05;;;;;;;;;;4961946;28;20108;-96
2023/07/08 00:07:34;;;;;;;14.02;4.80;;;;;;;;;;4991971;28;20066;-96
2023/07/08 00:10:00;;;;;;;14.20;4.30;;;;;;;;;;4968438;28;20034;-96
2023/07/08 00:12:27;;;;;;;6.18;3.78;;;;;;;;;;5001877;28;20549;-96
2023/07/08 00:14:56;;;;;;;11.10;4.50;;;;;;;;;;4966212;28;20046;-96
2023/07/08 00:17:23;;;;;;;10.13;4.72;;;;;;;;;;4970604;28;20090;-96
2023/07/08 00:19:52;;;;;;;15.00;4.05;;;;;;;;;;4980979;28;20031;-96
2023/07/08 00:22:22;;;;;;;12.75;4.45;;;;;;;;;;4968508;28;20068;-96
2023/07/08 00:24:48;;;;;;;8.82;3.60;;;;;;;;;;4968329;28;20106;-96
2023/07/08 00:27:15;;;;;;;6.25;4.10;;;;;;;;;;4982420;28;20117;-96
2023/07/08 00:29:43;;;;;;;6.65;4.05;;;;;;;;;;4971288;28;20034;-96
2023/07/08 00:32:14;;;;;;;9.35;4.30;;;;;;;;;;4994296;28;20077;-96
2023/07/08 00:34:43;;;;;;;9.43;4.57;;;;;;;;;;4987488;28;20054;-96
2023/07/08 00:37:13;;;;;;;9.52;4.22;;;;;;;;;;4991384;28;20038;-96
2023/07/08 00:39:43;;;;;;;9.55;4.15;;;;;;;;;;4991745;28;20011;-96
2023/07/08 00:42:30;;;;;;;9.50;3.80;;;;;;;;;;4973047;28;20022;-96
2023/07/08 00:44:56;;;;;;;10.75;4.40;;;;;;;;;;4986219;28;20105;-96
2023/07/08 00:47:44;;;;;;;8.43;4.20;;;;;;;;;;5008521;28;20095;-96
2023/07/08 00:50:12;;;;;;;7.28;4.20;;;;;;;;;;4974974;23;20113;-87
2023/07/08 00:52:38;;;;;;;11.52;4.40;;;;;;;;;;4936681;28;20102;-86
2023/07/08 00:55:09;;;;;;;12.20;4.40;;;;;;;;;;4931216;28;20424;-87
2023/07/08 00:57:38;;;;;;;11.93;3.83;;;;;;;;;;4960247;28;20530;-87
2023/07/08 01:00:08;;;;;;;8.77;4.90;;;;;;;;;;4949934;28;20072;-88
2023/07/08 01:02:36;;;;;;;12.68;4.85;;;;;;;;;;4965346;28;20031;-88
2023/07/08 01:05:05;;;;;;;10.43;4.40;;;;;;;;;;4947070;28;20113;-88
2023/07/08 01:07:32;;;;;;;6.97;3.92;;;;;;;;;;4945453;28;20510;-88
2023/07/08 01:10:02;;;;;;;12.63;4.43;;;;;;;;;;4949614;28;20494;-88
2023/07/08 01:12:32;;;;;;;8.15;4.25;;;;;;;;;;4958120;28;20035;-88
2023/07/08 01:15:02;;;;;;;10.68;4.53;;;;;;;;;;4963719;28;20062;-88
2023/07/08 01:17:32;;;;;;;12.60;4.50;;;;;;;;;;4958595;28;20027;-87
2023/07/08 01:19:59;;;;;;;6.05;4.00;;;;;;;;;;4930363;29;20474;-88
2023/07/08 01:22:32;;;;;;;9.45;4.50;;;;;;;;;;4959373;28;20114;-88
2023/07/08 01:25:03;;;;;;;11.35;4.55;;;;;;;;;;4957923;28;20043;-88
2023/07/08 01:27:29;;;;;;;7.50;4.28;;;;;;;;;;4939930;28;20037;-88
2023/07/08 01:29:55;;;;;;;11.10;4.22;;;;;;;;;;4942073;28;20035;-88
2023/07/08 01:32:22;;;;;;;7.10;4.25;;;;;;;;;;4944122;28;20034;-87
2023/07/08 01:34:59;;;;;;;10.63;5.00;;;;;;;;;;4935717;28;20042;-87
2023/07/08 01:37:26;;;;;;;5.95;3.97;;;;;;;;;;4949066;28;20082;-87
2023/07/08 01:39:52;;;;;;;10.85;4.90;;;;;;;;;;4943087;28;20032;-87
2023/07/08 01:42:18;;;;;;;8.73;4.53;;;;;;;;;;4926857;28;20075;-87
2023/07/08 01:44:44;;;;;;;6.75;4.63;;;;;;;;;;4964067;28;20027;-88
2023/07/08 01:47:14;;;;;;;10.27;4.35;;;;;;;;;;4933425;28;20039;-87
2023/07/08 01:49:41;;;;;;;8.38;4.00;;;;;;;;;;4961966;28;20052;-87
2023/07/08 01:52:08;;;;;;;7.03;4.15;;;;;;;;;;4957705;28;20031;-88
2023/07/08 01:54:34;;;;;;;8.18;4.22;;;;;;;;;;4943101;28;21229;-88
2023/07/08 01:57:01;;;;;;;8.27;3.90;;;;;;;;;;4924782;28;20070;-88
2023/07/08 01:59:40;;;;;;;9.05;4.40;;;;;;;;;;4927492;28;20039;-87
2023/07/08 02:02:06;;;;;;;9.90;4.28;;;;;;;;;;4933979;28;20474;-87
2023/07/08 02:04:32;;;;;;;10.98;5.57;;;;;;;;;;4964402;28;20491;-87
2023/07/08 02:06:59;;;;;;;9.38;4.50;;;;;;;;;;4938534;28;20093;-88
2023/07/08 02:09:25;;;;;;;9.77;4.63;;;;;;;;;;4947856;28;21099;-87
2023/07/08 02:11:52;;;;;;;9.75;4.82;;;;;;;;;;4928790;28;20044;-88
2023/07/08 02:14:18;;;;;;;10.40;4.70;;;;;;;;;;4930178;28;20449;-87
2023/07/08 02:16:44;;;;;;;9.80;5.00;;;;;;;;;;4945703;28;20484;-87
2023/07/08 02:19:11;;;;;;;11.27;4.18;;;;;;;;;;4946004;28;20027;-87
2023/07/08 02:21:37;;;;;;;10.05;4.50;;;;;;;;;;4930526;28;20331;-87
2023/07/08 02:24:03;;;;;;;7.55;4.32;;;;;;;;;;4924898;28;20043;-87
2023/07/08 02:26:31;;;;;;;9.13;4.70;;;;;;;;;;4941683;28;20059;-87
2023/07/08 02:28:58;;;;;;;10.73;4.75;;;;;;;;;;4937240;29;20118;-87
2023/07/08 02:31:24;;;;;;;11.90;5.20;;;;;;;;;;4941782;28;20731;-87
2023/07/08 02:33:51;;;;;;;20.27;5.35;;;;;;;;;;4947593;28;20039;-87
2023/07/08 02:36:17;;;;;;;9.60;5.30;;;;;;;;;;4928379;28;20039;-87
2023/07/08 02:38:43;;;;;;;9.65;5.93;;;;;;;;;;4959239;28;20122;-87
2023/07/08 02:41:09;;;;;;;13.40;4.70;;;;;;;;;;4921654;28;20503;-87
2023/07/08 02:43:35;;;;;;;13.88;4.90;;;;;;;;;;4924767;28;20035;-87
2023/07/08 02:46:01;;;;;;;18.65;5.30;;;;;;;;;;4926258;28;20054;-87
2023/07/08 02:48:27;;;;;;;7.72;4.65;;;;;;;;;;4933659;28;20448;-87
2023/07/08 02:51:00;;;;;;;9.55;6.32;;;;;;;;;;4952151;28;20044;-86
2023/07/08 02:53:27;;;;;;;9.38;5.38;;;;;;;;;;4933922;28;20057;-87
2023/07/08 02:55:53;;;;;;;8.40;5.45;;;;;;;;;;4932764;28;20092;-87
2023/07/08 02:58:19;;;;;;;8.48;5.28;;;;;;;;;;4935294;28;20047;-87
2023/07/08 03:00:45;;;;;;;12.80;6.07;;;;;;;;;;4947843;28;20514;-87
2023/07/08 03:03:11;;;;;;;13.88;5.53;;;;;;;;;;4960713;28;20032;-86
2023/07/08 03:05:37;;;;;;;9.95;5.47;;;;;;;;;;4926174;28;20110;-87
2023/07/08 03:08:03;;;;;;;13.13;5.72;;;;;;;;;;4933177;28;20036;-88
2023/07/08 03:10:29;;;;;;;12.70;5.35;;;;;;;;;;4949202;28;20036;-86
2023/07/08 03:12:55;;;;;;;12.48;5.90;;;;;;;;;;4930165;28;20046;-86
2023/07/08 03:15:21;;;;;;;15.23;5.80;;;;;;;;;;4927800;28;20066;-87
2023/07/08 03:17:47;;;;;;;11.98;5.22;;;;;;;;;;4935974;28;20114;-87
2023/07/08 03:20:13;;;;;;;10.80;5.55;;;;;;;;;;4942585;28;20039;-87
2023/07/08 03:22:40;;;;;;;16.73;6.15;;;;;;;;;;4944199;28;20652;-87
2023/07/08 03:25:06;;;;;;;10.20;5.75;;;;;;;;;;4926108;28;20044;-88
2023/07/08 03:27:32;;;;;;;10.85;5.68;;;;;;;;;;4935291;28;20034;-87
2023/07/08 03:29:58;;;;;;;12.30;7.40;;;;;;;;;;4929511;28;20478;-87
2023/07/08 03:32:25;;;;;;;7.78;5.35;;;;;;;;;;4932899;28;20071;-87
2023/07/08 03:34:51;;;;;;;10.13;5.72;;;;;;;;;;4957185;28;20130;-87
2023/07/08 03:37:17;;;;;;;13.27;5.88;;;;;;;;;;4942095;28;20094;-88
2023/07/08 03:39:43;;;;;;;12.50;6.45;;;;;;;;;;4932079;28;20032;-87
2023/07/08 03:42:10;;;;;;;12.60;5.47;;;;;;;;;;4925938;28;20062;-87
2023/07/08 03:44:36;;;;;;;10.98;5.70;;;;;;;;;;4954780;28;20609;-87
2023/07/08 03:47:02;;;;;;;10.60;6.00;;;;;;;;;;4927675;28;20035;-87
2023/07/08 03:49:28;;;;;;;9.13;5.30;;;;;;;;;;4963338;28;20547;-87
2023/07/08 03:51:55;;;;;;;8.00;5.30;;;;;;;;;;4932509;28;20982;-87
2023/07/08 03:54:22;;;;;;;10.23;5.22;;;;;;;;;;4969626;28;20028;-87
2023/07/08 03:56:48;;;;;;;9.93;5.47;;;;;;;;;;4937416;28;20038;-87
2023/07/08 03:59:16;;;;;;;12.13;5.57;;;;;;;;;;4968609;28;20026;-88
2023/07/08 04:01:42;;;;;;;11.20;5.75;;;;;;;;;;4962454;28;20038;-88
2023/07/08 04:04:11;;;;;;;10.73;5.72;;;;;;;;;;4947640;28;20051;-88
2023/07/08 04:06:37;;;;;;;8.57;5.45;;;;;;;;;;4973547;28;20035;-88
2023/07/08 04:09:03;;;;;;;13.65;6.00;;;;;;;;;;4961672;28;20133;-88
2023/07/08 04:11:29;;;;;;;8.95;5.25;;;;;;;;;;4945389;28;20049;-88
2023/07/08 04:13:55;;;;;;;19.05;6.20;;;;;;;;;;4942618;28;20039;-87
2023/07/08 04:16:29;;;;;;;11.55;5.45;;;;;;;;;;4936710;28;20040;-89
2023/07/08 04:18:55;;;;;;;8.85;5.53;;;;;;;;;;4972152;28;20049;-88
2023/07/08 04:21:22;;;;;;;17.40;5.57;;;;;;;;;;4936823;28;20055;-88
2023/07/08 04:23:48;;;;;;;9.75;5.10;;;;;;;;;;4966382;28;20542;-87
2023/07/08 04:26:14;;;;;;;7.55;4.85;;;;;;;;;;4930156;28;20032;-88
2023/07/08 04:28:41;;;;;;;9.38;5.35;;;;;;;;;;4948279;28;20035;-87
2023/07/08 04:31:07;;;;;;;9.93;5.22;;;;;;;;;;4947780;28;20027;-88
2023/07/08 04:33:34;;;;;;;7.95;5.22;;;;;;;;;;4957201;28;20593;-87
2023/07/08 04:36:00;;;;;;;10.38;4.82;;;;;;;;;;4936019;28;20071;-87
2023/07/08 04:38:26;;;;;;;10.13;5.00;;;;;;;;;;4935178;28;20358;-87
2023/07/08 04:40:53;;;;;;;13.07;5.30;;;;;;;;;;4960907;28;20031;-88
2023/07/08 04:43:23;;;;;;;10.38;4.43;;;;;;;;;;4954492;28;20043;-88
2023/07/08 04:45:50;;;;;;;6.88;4.70;;;;;;;;;;4959242;28;20054;-88
2023/07/08 04:48:18;;;;;;;10.95;4.82;;;;;;;;;;4948066;28;20102;-87
2023/07/08 04:50:45;;;;;;;8.40;5.20;;;;;;;;;;4961265;28;20062;-86
2023/07/08 04:53:12;;;;;;;11.43;5.07;;;;;;;;;;4946174;28;20057;-87
2023/07/08 04:55:47;;;;;;;8.10;4.93;;;;;;;;;;4946341;28;20081;-87
2023/07/08 04:58:13;;;;;;;9.57;5.07;;;;;;;;;;4959361;28;20475;-87
2023/07/08 05:00:39;;;;;;;13.15;5.30;;;;;;;;;;4962314;28;20491;-87
2023/07/08 05:03:06;;;;;;;8.85;5.15;;;;;;;;;;4966418;28;20455;-87
2023/07/08 05:05:32;;;;;;;9.32;5.22;;;;;;;;;;4960815;28;20546;-88
2023/07/08 05:07:58;;;;;;;8.10;4.93;;;;;;;;;;4941887;28;20490;-88
2023/07/08 05:10:24;;;;;;;10.55;5.57;;;;;;;;;;4943178;28;20501;-87
2023/07/08 05:12:50;;;;;;;12.52;5.25;;;;;;;;;;4964842;28;20035;-88
2023/07/08 05:15:19;;;;;;;9.18;4.35;;;;;;;;;;4929970;28;20046;-87
2023/07/08 05:17:45;;;;;;;9.07;5.03;;;;;;;;;;4945916;28;20577;-88
2023/07/08 05:20:13;;;;;;;9.38;4.80;;;;;;;;;;4949338;28;20086;-85
2023/07/08 05:22:39;;;;;;;8.90;4.82;;;;;;;;;;4957964;28;20038;-87
2023/07/08 05:25:06;;;;;;;7.97;4.40;;;;;;;;;;4947614;28;20089;-87
2023/07/08 05:27:35;;;;;;;7.43;5.20;;;;;;;;;;4948425;28;20042;-87
2023/07/08 05:30:02;;;;;;;7.53;5.15;;;;;;;;;;4954128;28;20057;-87
2023/07/08 05:32:28;;;;;;;7.60;4.57;;;;;;;;;;4943557;28;20046;-87
2023/07/08 05:34:54;;;;;;;8.95;4.32;;;;;;;;;;4959084;28;20035;-87
2023/07/08 05:37:24;;;;;;;7.72;4.25;;;;;;;;;;4958868;28;20506;-88
2023/07/08 05:39:51;;;;;;;14.15;4.65;;;;;;;;;;4958207;28;20038;-87
2023/07/08 05:42:17;;;;;;;10.40;4.15;;;;;;;;;;4949239;28;20061;-87
2023/07/08 05:44:43;;;;;;;8.10;4.20;;;;;;;;;;4948969;28;20027;-88
2023/07/08 05:47:09;;;;;;;7.38;4.35;;;;;;;;;;4951612;28;20043;-88
2023/07/08 05:49:35;;;;;;;7.40;3.92;;;;;;;;;;4946585;28;20471;-87
2023/07/08 05:52:06;;;;;;;10.00;4.15;;;;;;;;;;4945661;28;20165;-87
2023/07/08 05:54:32;;;;;;;8.30;4.10;;;;;;;;;;4945324;28;20742;-87
2023/07/08 05:56:58;;;;;;;10.27;5.60;;;;;;;;;;4946665;28;20550;-87
2023/07/08 05:59:24;;;;;;;8.25;4.13;;;;;;;;;;4943981;28;20042;-87
2023/07/08 06:01:50;;;;;;;8.25;4.20;;;;;;;;;;4949011;28;20237;-87
2023/07/08 06:04:16;;;;;;;5.85;3.60;;;;;;;;;;4960091;28;20035;-87
2023/07/08 06:06:42;;;;;;;9.13;4.20;;;;;;;;;;4938921;28;20284;-87
2023/07/08 06:09:08;;;;;;;11.82;4.00;;;;;;;;;;4960148;28;20085;-87
2023/07/08 06:11:34;;;;;;;11.07;4.20;;;;;;;;;;4945841;28;20138;-87
2023/07/08 06:14:00;;;;;;;9.07;4.72;;;;;;;;;;4947414;28;20031;-87
2023/07/08 06:16:29;;;;;;;13.50;4.60;;;;;;;;;;4945374;28;20081;-88
2023/07/08 06:18:57;;;;;;;8.10;4.07;;;;;;;;;;4960379;28;20556;-87
2023/07/08 06:21:23;;;;;;;6.78;3.70;;;;;;;;;;4951853;28;20030;-87
2023/07/08 06:23:49;;;;;;;8.38;4.28;;;;;;;;;;4952012;28;20142;-87
2023/07/08 06:26:15;;;;;;;7.85;4.03;;;;;;;;;;4951800;28;20109;-87
2023/07/08 06:28:41;;;;;;;7.32;3.90;;;;;;;;;;4960393;28;20039;-87
2023/07/08 06:31:07;;;;;;;10.95;3.92;;;;;;;;;;4962831;28;20035;-88
2023/07/08 06:33:33;;;;;;;12.27;4.28;;;;;;;;;;4950425;28;20486;-87
2023/07/08 06:35:59;;;;;;;10.23;4.38;;;;;;;;;;4924365;28;20094;-86
2023/07/08 06:38:25;;;;;;;10.90;3.55;;;;;;;;;;4944699;28;20039;-87
2023/07/08 06:40:51;;;;;;;10.02;3.72;;;;;;;;;;4956017;28;20102;-88
2023/07/08 06:43:17;;;;;;;5.28;3.40;;;;;;;;;;4939253;28;20046;-88
2023/07/08 06:45:44;;;;;;;10.52;3.90;;;;;;;;;;4945481;28;20747;-88
2023/07/08 06:48:10;;;;;;;6.10;3.45;;;;;;;;;;4963098;28;20042;-88
2023/07/08 06:50:36;;;;;;;6.90;3.70;;;;;;;;;;4943179;28;20091;-89
2023/07/08 06:53:02;;;;;;;5.32;3.55;;;;;;;;;;4949027;28;20069;-88
2023/07/08 06:55:30;;;;;;;5.45;3.60;;;;;;;;;;4944378;28;20035;-88
2023/07/08 06:57:56;;;;;;;7.10;3.63;;;;;;;;;;4962295;28;20121;-88
2023/07/08 07:00:22;;;;;;;9.25;3.38;;;;;;;;;;4925140;28;20622;-88
2023/07/08 07:02:48;;;;;;;8.90;3.50;;;;;;;;;;4942924;28;20443;-88
2023/07/08 07:05:14;;;;;;;11.73;3.30;;;;;;;;;;4960376;28;20042;-88
2023/07/08 07:07:40;;;;;;;7.88;3.85;;;;;;;;;;4948696;28;20277;-87
2023/07/08 07:10:07;;;;;;;4.50;3.25;;;;;;;;;;4943830;28;20454;-87
2023/07/08 07:12:34;;;;;;;6.55;3.17;;;;;;;;;;4962383;28;20665;-88
2023/07/08 07:15:00;;;;;;;7.70;3.45;;;;;;;;;;4955474;28;20027;-87
2023/07/08 07:17:27;;;;;;;5.15;3.60;;;;;;;;;;4942338;28;20043;-88
2023/07/08 07:19:54;;;;;;;6.50;3.35;;;;;;;;;;4942611;28;20031;-86
2023/07/08 07:22:20;;;;;;;5.05;3.20;;;;;;;;;;4959340;28;20039;-88
2023/07/08 07:24:46;;;;;;;6.32;3.38;;;;;;;;;;4948238;28;20310;-88
2023/07/08 07:27:12;;;;;;;10.43;3.53;;;;;;;;;;4961451;28;20509;-88
2023/07/08 07:29:59;;;;;;;6.03;3.85;;;;;;;;;;4938506;28;20059;-89
2023/07/08 07:32:25;;;;;;;5.80;3.50;;;;;;;;;;4960611;28;20447;-88
2023/07/08 07:34:52;;;;;;;4.63;3.47;;;;;;;;;;4962988;28;20057;-88
2023/07/08 07:37:19;;;;;;;6.10;3.58;;;;;;;;;;4946768;28;20077;-88
2023/07/08 07:39:45;;;;;;;5.35;3.60;;;;;;;;;;4961570;28;20173;-89
2023/07/08 07:42:18;;;;;;;6.70;4.07;;;;;;;;;;4949090;28;20037;-89
2023/07/08 07:44:45;;;;;;;6.80;3.42;;;;;;;;;;4945615;28;20042;-89
2023/07/08 07:47:11;;;;;;;6.70;3.42;;;;;;;;;;4950914;28;20089;-88
2023/07/08 07:49:37;;;;;;;5.03;3.45;;;;;;;;;;4947239;28;20538;-89
2023/07/08 07:52:03;;;;;;;9.60;3.50;;;;;;;;;;4959522;28;20596;-88
2023/07/08 07:54:31;;;;;;;4.53;3.35;;;;;;;;;;4964253;28;20467;-89
2023/07/08 07:56:57;;;;;;;5.70;3.97;;;;;;;;;;4944301;28;20039;-89
2023/07/08 07:59:26;;;;;;;7.65;3.60;;;;;;;;;;4945408;28;20047;-88
2023/07/08 08:01:53;;;;;;;5.78;3.60;;;;;;;;;;4945318;28;20065;-89
2023/07/08 08:04:22;;;;;;;6.38;3.28;;;;;;;;;;4938081;28;20027;-88
2023/07/08 08:06:48;;;;;;;6.13;3.08;;;;;;;;;;4944907;28;20059;-89
2023/07/08 08:09:17;;;;;;;6.53;3.80;;;;;;;;;;4942574;28;20031;-88
2023/07/08 08:11:43;;;;;;;5.38;3.80;;;;;;;;;;4957250;28;20038;-88
2023/07/08 08:14:09;;;;;;;4.88;3.15;;;;;;;;;;4957258;28;20088;-89
2023/07/08 08:16:36;;;;;;;7.28;3.72;;;;;;;;;;4958218;28;20074;-89
2023/07/08 08:19:23;;;;;;;3.67;3.28;;;;;;;;;;4961252;28;20108;-92
2023/07/08 08:21:55;;;;;;;12.15;3.28;;;;;;;;;;4953428;28;20051;-93
2023/07/08 08:24:24;;;;;;;9.52;3.30;;;;;;;;;;4953835;28;20035;-90
2023/07/08 08:26:50;;;;;;;12.05;5.38;;;;;;;;;;4952055;28;20069;-90
2023/07/08 08:29:19;;;;;;;4.60;3.22;;;;;;;;;;4940145;28;20059;-90
2023/07/08 08:31:50;;;;;;;8.70;4.18;;;;;;;;;;4938837;28;20587;-91
2023/07/08 08:34:23;;;;;;;4.35;3.50;;;;;;;;;;4982142;23;20054;-89
2023/07/08 08:36:49;;;;;;;7.10;3.53;;;;;;;;;;4968055;28;20034;-89
2023/07/08 08:39:15;;;;;;;5.47;3.10;;;;;;;;;;4968347;28;20113;-89
2023/07/08 08:41:43;;;;;;;10.55;4.07;;;;;;;;;;4969248;28;20388;-89
2023/07/08 08:44:13;;;;;;;6.10;3.55;;;;;;;;;;4970647;28;20029;-89
2023/07/08 08:46:52;;;;;;;3.53;3.00;;;;;;;;;;4975728;28;20101;-89
2023/07/08 08:49:21;;;;;;;7.35;3.38;;;;;;;;;;4994224;28;20045;-90
2023/07/08 08:51:51;;;;;;;6.00;3.60;;;;;;;;;;4981303;28;20035;-90
2023/07/08 08:54:17;;;;;;;6.05;4.18;;;;;;;;;;4968473;28;20030;-89
2023/07/08 08:56:49;;;;;;;5.03;3.58;;;;;;;;;;4974712;28;20040;-89
2023/07/08 08:59:18;;;;;;;9.88;3.60;;;;;;;;;;4992839;28;20006;-90
2023/07/08 09:01:45;;;;;;;4.22;3.17;;;;;;;;;;4987676;28;20102;-90
2023/07/08 09:04:16;;;;;;;6.47;2.97;;;;;;;;;;4983154;28;20502;-90
2023/07/08 09:06:42;;;;;;;6.70;3.10;;;;;;;;;;4978649;28;20038;-89
2023/07/08 09:09:28;;;;;;;5.75;3.30;;;;;;;;;;4978559;28;20030;-89
2023/07/08 09:12:12;;;;;;;4.13;3.25;;;;;;;;;;4988217;28;20124;-88
2023/07/08 09:14:39;;;;;;;5.38;2.72;;;;;;;;;;4985999;28;20391;-90
2023/07/08 09:17:11;;;;;;;6.53;2.92;;;;;;;;;;4973862;28;20039;-90
2023/07/08 09:19:41;;;;;;;8.02;2.80;;;;;;;;;;4970263;28;20025;-89
2023/07/08 09:22:32;;;;;;;4.65;2.97;;;;;;;;;;4986083;28;20061;-88
2023/07/08 09:25:17;;;;;;;7.30;3.30;;;;;;;;;;4971260;28;20039;-89
2023/07/08 09:27:43;;;;;;;6.03;3.07;;;;;;;;;;4952814;28;20141;-90
2023/07/08 09:30:16;;;;;;;6.57;3.30;;;;;;;;;;4951231;28;20039;-91
2023/07/08 09:32:43;;;;;;;3.65;3.10;;;;;;;;;;4955618;28;20058;-91
2023/07/08 09:35:10;;;;;;;6.45;3.28;;;;;;;;;;4943633;28;20084;-90
2023/07/08 09:37:38;;;;;;;6.65;3.38;;;;;;;;;;4948084;28;20034;-92
2023/07/08 09:40:22;;;;;;;4.68;3.20;;;;;;;;;;4954013;28;20054;-92
2023/07/08 09:42:53;;;;;;;4.60;3.08;;;;;;;;;;4961587;28;20039;-92
2023/07/08 09:45:23;;;;;;;6.22;3.65;;;;;;;;;;4945155;28;20034;-92
2023/07/08 09:47:53;;;;;;;4.20;3.15;;;;;;;;;;4953277;28;20436;-92
2023/07/08 09:50:27;;;;;;;9.00;3.15;;;;;;;;;;4955405;28;20049;-92
2023/07/08 09:52:57;;;;;;;6.22;2.90;;;;;;;;;;4951618;28;20122;-92
2023/07/08 09:55:23;;;;;;;5.03;3.08;;;;;;;;;;4940094;28;20692;-92
2023/07/08 09:57:51;;;;;;;6.25;3.28;;;;;;;;;;4953382;28;20111;-91
2023/07/08 10:00:26;;;;;;;6.47;3.45;;;;;;;;;;4947829;28;20019;-90
2023/07/08 10:02:55;;;;;;;2.70;2.47;;;;;;;;;;4963740;28;20081;-91
2023/07/08 10:05:38;;;;;;;8.48;3.38;;;;;;;;;;4967255;28;20030;-91
2023/07/08 10:08:25;;;;;;;4.88;3.40;;;;;;;;;;4944478;28;20027;-91
2023/07/08 10:10:58;;;;;;;4.68;3.17;;;;;;;;;;4945544;28;20379;-90
2023/07/08 10:13:43;;;;;;;10.02;4.53;;;;;;;;;;4960055;28;20088;-90
2023/07/08 10:16:09;;;;;;;9.43;3.42;;;;;;;;;;4959183;28;20058;-90
2023/07/08 10:18:35;;;;;;;7.20;3.33;;;;;;;;;;4946442;28;20034;-90
2023/07/08 10:21:27;;;;;;;5.95;2.72;;;;;;;;;;4939821;28;20027;-90
2023/07/08 10:23:56;;;;;;;7.47;3.00;;;;;;;;;;4941283;28;20039;-90
2023/07/08 10:26:28;;;;;;;4.05;2.78;;;;;;;;;;4950220;28;20318;-90
2023/07/08 10:29:09;;;;;;;4.65;3.20;;;;;;;;;;4940272;28;20062;-90
2023/07/08 10:32:00;;;;;;;5.45;3.30;;;;;;;;;;4968478;28;20023;-90
2023/07/08 10:34:45;;;;;;;5.88;3.15;;;;;;;;;;4953470;28;20467;-90
2023/07/08 10:37:31;;;;;;;8.73;3.30;;;;;;;;;;4942703;28;20039;-90
2023/07/08 10:40:16;;;;;;;4.50;3.25;;;;;;;;;;4944524;28;20260;-91
2023/07/08 10:42:57;;;;;;;6.43;3.13;;;;;;;;;;4958406;28;20038;-90
2023/07/08 10:45:31;;;;;;;7.93;3.10;;;;;;;;;;4949363;28;20122;-91
2023/07/08 10:48:16;;;;;;;5.38;3.38;;;;;;;;;;4946908;28;20119;-90
2023/07/08 10:50:57;;;;;;;4.23;3.13;;;;;;;;;;4950307;28;20045;-91
2023/07/08 10:53:51;;;;;;;5.68;3.03;;;;;;;;;;4948503;28;20286;-91
2023/07/08 10:56:23;;;;;;;8.70;3.22;;;;;;;;;;4930594;28;20498;-90
2023/07/08 10:58:49;;;;;;;5.55;3.40;;;;;;;;;;4953893;28;20019;-89
2023/07/08 11:01:45;;;;;;;4.63;3.50;;;;;;;;;;4944222;28;20050;-90
2023/07/08 11:04:18;;;;;;;8.38;3.47;;;;;;;;;;4935299;28;20119;-90
2023/07/08 11:06:46;;;;;;;8.23;3.65;;;;;;;;;;4965484;28;20027;-91
2023/07/08 11:09:20;;;;;;;7.10;3.33;;;;;;;;;;4952685;28;20517;-91
2023/07/08 11:11:51;;;;;;;9.75;3.53;;;;;;;;;;4951163;28;20039;-90
2023/07/08 11:14:21;;;;;;;7.60;3.80;;;;;;;;;;4945309;28;20051;-91
2023/07/08 11:16:50;;;;;;;3.80;2.83;;;;;;;;;;4941592;28;20442;-91
2023/07/08 11:19:20;;;;;;;4.78;3.22;;;;;;;;;;4944046;28;20565;-92
2023/07/08 11:21:47;;;;;;;8.32;3.50;;;;;;;;;;4942995;28;20035;-92
2023/07/08 11:24:46;;;;;;;4.07;3.35;;;;;;;;;;4948867;28;20026;-92
2023/07/08 11:27:15;;;;;;;6.53;3.50;;;;;;;;;;4929010;28;20078;-92
2023/07/08 11:29:47;;;;;;;5.63;3.42;;;;;;;;;;4962352;28;20034;-91
2023/07/08 11:32:16;;;;;;;3.58;2.95;;;;;;;;;;4949385;28;20502;-91
2023/07/08 11:34:43;;;;;;;4.70;3.53;;;;;;;;;;4949618;28;20059;-91
2023/07/08 11:37:10;;;;;;;5.30;3.10;;;;;;;;;;4963771;28;20027;-91
2023/07/08 11:39:41;;;;;;;5.93;3.90;;;;;;;;;;4943230;28;20086;-92
2023/07/08 11:42:14;;;;;;;5.68;3.35;;;;;;;;;;4944743;28;20039;-91
2023/07/08 11:44:52;;;;;;;8.80;3.55;;;;;;;;;;4957343;28;20027;-91
2023/07/08 11:47:22;;;;;;;7.75;3.70;;;;;;;;;;4946256;28;20522;-90
2023/07/08 11:49:49;;;;;;;13.20;4.35;;;;;;;;;;4942586;28;20027;-90
2023/07/08 11:52:18;;;;;;;9.00;4.50;;;;;;;;;;4947386;28;20557;-91
2023/07/08 11:54:47;;;;;;;6.70;3.30;;;;;;;;;;4967202;28;20475;-90
2023/07/08 11:57:24;;;;;;;4.97;3.78;;;;;;;;;;4945652;28;20073;-90
2023/07/08 12:00:06;;;;;;;4.15;3.10;;;;;;;;;;4966140;28;20019;-91
2023/07/08 12:02:47;;;;;;;5.13;3.97;;;;;;;;;;4964193;28;20031;-90
2023/07/08 12:05:14;;;;;;;4.05;3.35;;;;;;;;;;4954337;28;20127;-91
2023/07/08 12:07:43;;;;;;;5.40;3.80;;;;;;;;;;4944972;28;20193;-91
2023/07/08 12:10:22;;;;;;;8.95;3.50;;;;;;;;;;4949125;28;20034;-91
2023/07/08 12:12:48;;;;;;;3.83;3.45;;;;;;;;;;4949400;28;20047;-91
2023/07/08 12:15:18;;;;;;;5.45;4.00;;;;;;;;;;4949205;28;20394;-90
2023/07/08 12:17:44;;;;;;;7.10;3.70;;;;;;;;;;4942638;28;20122;-91
2023/07/08 12:20:19;;;;;;;6.65;3.75;;;;;;;;;;4940489;28;20031;-90
2023/07/08 12:22:45;;;;;;;6.03;3.55;;;;;;;;;;4951871;28;20065;-90
2023/07/08 12:25:16;;;;;;;4.63;3.80;;;;;;;;;;4959027;28;20030;-90
2023/07/08 12:27:43;;;;;;;5.95;3.72;;;;;;;;;;4960513;28;20035;-90
2023/07/08 12:30:11;;;;;;;4.95;3.13;;;;;;;;;;4961855;28;20028;-91
2023/07/08 12:32:37;;;;;;;7.60;4.07;;;;;;;;;;4975902;28;20090;-89
2023/07/08 12:35:10;;;;;;;14.52;4.22;;;;;;;;;;4978671;28;20748;-90
2023/07/08 12:37:43;;;;;;;7.10;3.90;;;;;;;;;;4956805;28;20077;-90
2023/07/08 12:40:11;;;;;;;7.93;3.38;;;;;;;;;;4970406;28;20039;-90
2023/07/08 12:42:37;;;;;;;5.47;3.85;;;;;;;;;;4956491;28;20054;-91
2023/07/08 12:45:12;;;;;;;8.80;4.10;;;;;;;;;;4941677;28;20050;-89
2023/07/08 12:47:38;;;;;;;;;;;;;;;;;;4956846;28;20069;-90
2023/07/08 12:50:04;;;;;;;5.35;3.60;;;;;;;;;;4954128;28;20447;-91
2023/07/08 12:52:30;;;;;;;7.15;3.92;;;;;;;;;;4945282;28;20046;-91
2023/07/08 12:54:56;;;;;;;11.18;4.30;;;;;;;;;;4935926;28;20057;-90
2023/07/08 12:57:23;;;;;;;4.45;3.78;;;;;;;;;;4938336;28;20583;-91
2023/07/08 12:59:49;;;;;;;5.85;3.63;;;;;;;;;;4936997;28;20223;-91
2023/07/08 13:02:20;;;;;;;12.85;3.75;;;;;;;;;;4955285;28;20114;-91
2023/07/08 13:04:51;;;;;;;6.90;3.42;;;;;;;;;;4957709;28;20455;-91
2023/07/08 13:07:23;;;;;;;4.90;3.55;;;;;;;;;;4949596;28;20030;-90
2023/07/08 13:09:51;;;;;;;8.93;3.42;;;;;;;;;;4952519;28;20031;-90
2023/07/08 13:12:20;;;;;;;4.68;3.92;;;;;;;;;;4956029;28;20041;-90
2023/07/08 13:14:46;;;;;;;4.72;3.85;;;;;;;;;;4956611;28;20510;-90
2023/07/08 13:17:13;;;;;;;4.10;3.70;;;;;;;;;;4971607;28;20041;-90
2023/07/08 13:19:40;;;;;;;5.15;3.67;;;;;;;;;;4943294;28;20046;-90
2023/07/08 13:22:09;;;;;;;5.55;3.72;;;;;;;;;;4938354;28;20472;-90
2023/07/08 13:24:35;;;;;;;4.80;3.90;;;;;;;;;;4953792;28;20030;-89
2023/07/08 13:27:01;;;;;;;6.80;4.07;;;;;;;;;;4950503;28;20067;-90
2023/07/08 13:29:34;;;;;;;4.63;3.63;;;;;;;;;;4943553;28;20047;-90
2023/07/08 13:32:05;;;;;;;4.93;3.95;;;;;;;;;;4953387;28;20023;-90
2023/07/08 13:34:33;;;;;;;6.93;4.05;;;;;;;;;;4950545;28;20114;-90
2023/07/08 13:36:59;;;;;;;4.80;3.78;;;;;;;;;;4968002;28;20117;-91
2023/07/08 13:39:27;;;;;;;8.07;4.50;;;;;;;;;;4948370;28;20412;-90
2023/07/08 13:41:54;;;;;;;4.60;3.67;;;;;;;;;;4953189;28;20107;-91
2023/07/08 13:44:20;;;;;;;13.57;4.78;;;;;;;;;;4953259;28;20396;-91
2023/07/08 13:46:53;;;;;;;7.93;5.43;;;;;;;;;;4959572;28;20061;-91
2023/07/08 13:49:37;;;;;;;9.80;6.30;;;;;;;;;;4960473;28;20509;-90
2023/07/08 13:52:13;;;;;;;9.57;7.75;;;;;;;;;;4955196;28;20066;-91
2023/07/08 13:54:50;;;;;;;11.65;8.13;;;;;;;;;;4957218;28;20216;-91
2023/07/08 13:57:17;;;;;;;10.27;8.05;;;;;;;;;;4972434;28;20042;-91
2023/07/08 13:59:44;;;;;;;12.02;9.43;;;;;;;;;;4959950;28;20027;-91
2023/07/08 14:02:18;;;;;;;13.10;10.25;;;;;;;;;;4958903;28;20531;-91
2023/07/08 14:04:45;;;;;;;12.52;10.07;;;;;;;;;;4989549;28;20498;-91
2023/07/08 14:07:18;;;;;;;15.07;8.43;;;;;;;;;;4979325;28;20031;-90
2023/07/08 14:09:44;;;;;;;10.80;6.50;;;;;;;;;;4969050;28;20054;-91
2023/07/08 14:12:10;;;;;;;9.88;5.43;;;;;;;;;;4969451;28;20241;-90
2023/07/08 14:14:36;;;;;;;8.75;4.78;;;;;;;;;;4989148;28;20034;-91
2023/07/08 14:17:03;;;;;;;8.93;5.57;;;;;;;;;;4974803;28;20031;-90
2023/07/08 14:19:33;;;;;;;7.18;6.28;;;;;;;;;;4942183;28;20085;-92
2023/07/08 14:22:23;;;;;;;10.55;4.68;;;;;;;;;;4950116;28;20035;-90
2023/07/08 14:24:49;;;;;;;10.98;5.55;;;;;;;;;;4948893;28;20211;-91
2023/07/08 14:27:16;;;;;;;6.18;4.60;;;;;;;;;;4954741;28;20049;-90
2023/07/08 14:29:42;;;;;;;6.68;4.78;;;;;;;;;;4956694;28;20042;-91
2023/07/08 14:32:13;;;;;;;8.05;4.68;;;;;;;;;;4938599;28;20133;-91
2023/07/08 14:34:39;;;;;;;5.07;4.57;;;;;;;;;;4950107;28;20030;-92
2023/07/08 14:37:13;;;;;;;8.40;6.05;;;;;;;;;;4966701;28;20065;-91
2023/07/08 14:39:39;;;;;;;6.90;4.85;;;;;;;;;;4951814;28;20034;-91
2023/07/08 14:42:05;;;;;;;8.43;5.30;;;;;;;;;;4947234;28;20039;-91
2023/07/08 14:44:34;;;;;;;7.00;4.93;;;;;;;;;;4938057;28;20425;-91
2023/07/08 14:47:00;;;;;;;7.28;5.00;;;;;;;;;;4952260;28;20377;-91
2023/07/08 14:49:27;;;;;;;6.18;4.90;;;;;;;;;;4951802;28;20030;-92
2023/07/08 14:51:53;;;;;;;8.85;5.30;;;;;;;;;;4948069;28;20062;-91